createdAt,value
2022-11-02T00:01:09.476Z,10.43
2022-11-02T00:02:11.145Z,9.97
2022-11-02T00:03:12.982Z,10.57
2022-11-02T00:04:15.484Z,10.00
2022-11-02T00:05:17.130Z,9.40
2022-11-02T00:06:18.675Z,9.63
2022-11-02T00:07:20.291Z,10.10
2022-11-02T00:08:21.796Z,9.57
2022-11-02T00:09:23.300Z,9.83
2022-11-02T00:10:25.529Z,10.27
2022-11-02T00:11:27.126Z,9.17
2022-11-02T00:12:28.619Z,10.80
2022-11-02T00:13:30.169Z,9.60
2022-11-02T00:14:31.681Z,9.83
2022-11-02T00:15:36.203Z,11.00
2022-11-02T00:16:40.066Z,10.90
2022-11-02T00:17:43.918Z,9.87
2022-11-02T00:18:47.742Z,11.10
2022-11-02T00:19:49.560Z,10.13
2022-11-02T00:20:51.712Z,9.67
2022-11-02T00:21:53.534Z,10.93
2022-11-02T00:22:58.710Z,10.43
2022-11-02T00:24:01.220Z,10.93
2022-11-02T00:25:04.786Z,10.77
2022-11-02T00:26:06.373Z,10.97
2022-11-02T00:27:07.967Z,11.10
2022-11-02T00:28:09.711Z,10.03
2022-11-02T00:29:11.309Z,10.93
2022-11-02T00:30:12.869Z,11.30
2022-11-02T00:31:14.369Z,10.17
2022-11-02T00:32:15.927Z,10.50
2022-11-02T00:33:17.482Z,11.27
2022-11-02T00:34:19.177Z,10.97
2022-11-02T00:35:20.678Z,11.27
2022-11-02T00:36:24.816Z,10.70
2022-11-02T00:37:26.496Z,12.27
2022-11-02T00:38:28.102Z,11.20
2022-11-02T00:39:29.627Z,11.57
2022-11-02T00:40:31.432Z,10.67
2022-11-02T00:41:32.929Z,10.20
2022-11-02T00:42:34.441Z,10.83
2022-11-02T00:43:36.021Z,10.93
2022-11-02T00:44:37.573Z,11.13
2022-11-02T00:45:39.225Z,11.27
2022-11-02T00:46:40.746Z,10.47
2022-11-02T00:47:42.271Z,11.73
2022-11-02T00:48:43.784Z,10.70
2022-11-02T00:49:45.343Z,10.37
2022-11-02T00:50:46.861Z,10.20
2022-11-02T00:51:48.375Z,10.50
2022-11-02T00:52:49.908Z,11.30
2022-11-02T00:53:51.510Z,11.50
2022-11-02T00:54:53.038Z,10.57
2022-11-02T00:55:54.639Z,10.30
2022-11-02T00:56:56.444Z,11.27
2022-11-02T00:57:58.276Z,11.93
2022-11-02T00:58:59.780Z,10.70
2022-11-02T01:00:01.617Z,11.23
2022-11-02T01:01:07.450Z,10.87
2022-11-02T01:02:09.251Z,10.67
2022-11-02T01:03:10.879Z,10.27
2022-11-02T01:04:12.429Z,11.00
2022-11-02T01:05:13.972Z,10.20
2022-11-02T01:06:16.186Z,10.47
2022-11-02T01:07:17.712Z,10.87
2022-11-02T01:08:19.223Z,11.40
2022-11-02T01:09:21.707Z,10.60
2022-11-02T01:10:23.654Z,9.93
2022-11-02T01:11:25.241Z,10.17
2022-11-02T01:12:27.249Z,9.63
2022-11-02T01:13:28.766Z,9.70
2022-11-02T01:14:30.613Z,11.33
2022-11-02T01:15:32.139Z,10.53
2022-11-02T01:16:33.746Z,11.97
2022-11-02T01:17:35.370Z,11.10
2022-11-02T01:18:37.118Z,10.57
2022-11-02T01:19:38.657Z,10.77
2022-11-02T01:20:40.228Z,10.67
2022-11-02T01:21:41.726Z,10.33
2022-11-02T01:22:43.229Z,10.50
2022-11-02T01:23:45.003Z,10.10
2022-11-02T01:24:46.534Z,10.20
2022-11-02T01:25:48.127Z,10.40
2022-11-02T01:26:51.832Z,9.73
2022-11-02T01:27:53.502Z,10.33
2022-11-02T01:28:55.252Z,9.63
2022-11-02T01:29:57.125Z,10.27
2022-11-02T01:30:59.560Z,10.97
2022-11-02T01:32:01.155Z,10.40
2022-11-02T01:33:05.680Z,10.80
2022-11-02T01:34:07.744Z,10.63
2022-11-02T01:35:10.405Z,11.10
2022-11-02T01:36:14.041Z,11.00
2022-11-02T01:37:15.631Z,12.47
2022-11-02T01:38:17.191Z,10.73
2022-11-02T01:39:18.740Z,10.73
2022-11-02T01:40:20.228Z,10.47
2022-11-02T01:41:21.886Z,10.53
2022-11-02T01:42:25.487Z,11.27
2022-11-02T01:43:32.643Z,10.33
2022-11-02T01:44:35.656Z,11.50
2022-11-02T01:45:37.215Z,11.00
2022-11-02T01:46:42.991Z,11.17
2022-11-02T01:47:48.519Z,11.20
2022-11-02T01:49:01.365Z,10.83
2022-11-02T01:50:25.766Z,11.00
2022-11-02T01:51:32.314Z,10.67
2022-11-02T01:52:36.450Z,10.43
2022-11-02T01:53:42.833Z,10.87
2022-11-02T01:54:55.999Z,10.43
2022-11-02T01:55:59.078Z,11.13
2022-11-02T01:57:05.063Z,10.33
2022-11-02T01:58:10.086Z,11.53
2022-11-02T01:59:21.898Z,11.57
2022-11-02T02:00:23.661Z,12.10
2022-11-02T02:01:26.098Z,11.07
2022-11-02T02:02:28.845Z,10.57
2022-11-02T02:03:32.643Z,11.67
2022-11-02T02:04:35.179Z,10.63
2022-11-02T02:05:42.009Z,11.63
2022-11-02T02:06:44.350Z,12.00
2022-11-02T02:07:47.580Z,11.40
2022-11-02T02:08:51.332Z,11.30
2022-11-02T02:09:53.170Z,10.90
2022-11-02T02:10:58.444Z,11.30
2022-11-02T02:11:59.991Z,12.10
2022-11-02T02:13:01.806Z,10.43
2022-11-02T02:14:08.209Z,11.47
2022-11-02T02:15:11.866Z,10.73
2022-11-02T02:16:33.491Z,11.17
2022-11-02T02:17:42.815Z,10.23
2022-11-02T02:18:57.236Z,10.10
2022-11-02T02:20:18.282Z,11.47
2022-11-02T02:21:35.197Z,11.30
2022-11-02T02:22:51.886Z,10.07
2022-11-02T02:24:05.789Z,11.27
2022-11-02T02:25:13.121Z,10.57
2022-11-02T02:26:33.464Z,10.47
2022-11-02T02:28:19.601Z,9.10
2022-11-02T02:29:24.555Z,10.40
2022-11-02T02:30:28.962Z,9.67
2022-11-02T02:31:54.171Z,9.13
2022-11-02T02:33:10.517Z,9.80
2022-11-02T02:34:23.319Z,10.00
2022-11-02T02:35:34.099Z,9.67
2022-11-02T02:36:39.587Z,9.10
2022-11-02T02:37:45.338Z,8.37
2022-11-02T02:38:55.698Z,8.87
2022-11-02T02:40:09.023Z,9.30
2022-11-02T02:41:30.831Z,8.87
2022-11-02T02:42:37.767Z,8.63
2022-11-02T02:43:52.371Z,9.03
2022-11-02T02:45:06.467Z,8.80
2022-11-02T02:46:19.583Z,9.67
2022-11-02T02:47:27.768Z,9.33
2022-11-02T02:48:29.640Z,9.13
2022-11-02T02:49:39.160Z,8.87
2022-11-02T02:50:52.836Z,9.90
2022-11-02T02:51:57.510Z,8.67
2022-11-02T02:53:02.342Z,9.30
2022-11-02T02:54:08.727Z,9.47
2022-11-02T02:55:17.343Z,9.47
2022-11-02T02:56:21.703Z,9.33
2022-11-02T02:57:25.498Z,9.50
2022-11-02T02:58:33.000Z,10.43
2022-11-02T02:59:40.178Z,10.00
2022-11-02T03:00:41.960Z,9.73
2022-11-02T03:01:45.578Z,9.23
2022-11-02T03:03:03.384Z,10.07
2022-11-02T03:04:04.935Z,8.60
2022-11-02T03:05:25.965Z,10.07
2022-11-02T03:06:31.646Z,9.90
2022-11-02T03:07:34.502Z,8.93
2022-11-02T03:08:39.041Z,9.73
2022-11-02T03:09:46.101Z,9.40
2022-11-02T03:11:12.006Z,9.70
2022-11-02T03:12:32.400Z,9.10
2022-11-02T03:13:49.432Z,9.27
2022-11-02T03:15:00.111Z,9.97
2022-11-02T03:16:11.237Z,10.07
2022-11-02T03:17:23.091Z,9.97
2022-11-02T03:18:44.820Z,9.67
2022-11-02T03:19:51.516Z,9.50
2022-11-02T03:20:57.488Z,9.20
2022-11-02T03:22:07.082Z,10.10
2022-11-02T03:23:23.865Z,10.33
2022-11-02T03:24:34.541Z,9.57
2022-11-02T03:25:42.931Z,9.83
2022-11-02T03:27:18.395Z,8.90
2022-11-02T03:28:28.437Z,9.17
2022-11-02T03:29:36.769Z,9.63
2022-11-02T03:30:44.774Z,9.20
2022-11-02T03:32:00.270Z,9.50
2022-11-02T03:33:10.957Z,8.93
2022-11-02T03:34:17.917Z,9.93
2022-11-02T03:35:24.838Z,9.63
2022-11-02T03:36:39.142Z,10.13
2022-11-02T03:38:24.059Z,9.10
2022-11-02T03:39:50.848Z,9.83
2022-11-02T03:40:56.917Z,9.03
2022-11-02T03:42:02.206Z,9.20
2022-11-02T03:43:05.625Z,9.73
2022-11-02T03:44:10.890Z,9.73
2022-11-02T03:45:15.315Z,9.57
2022-11-02T03:46:19.175Z,9.53
2022-11-02T03:47:21.480Z,10.90
2022-11-02T03:48:29.579Z,10.23
2022-11-02T03:49:32.826Z,10.23
2022-11-02T03:50:36.719Z,9.60
2022-11-02T03:51:42.691Z,9.93
2022-11-02T03:52:47.059Z,9.63
2022-11-02T03:53:55.034Z,10.47
2022-11-02T03:55:13.754Z,9.50
2022-11-02T03:56:23.422Z,10.50
2022-11-02T03:57:37.657Z,10.27
2022-11-02T03:58:39.262Z,9.13
2022-11-02T03:59:40.774Z,9.60
2022-11-02T04:00:50.428Z,9.93
2022-11-02T04:01:52.793Z,9.97
2022-11-02T04:03:00.402Z,10.17
2022-11-02T04:04:04.498Z,10.20
2022-11-02T04:05:06.364Z,10.53
2022-11-02T04:06:08.809Z,9.87
2022-11-02T04:07:10.733Z,10.70
2022-11-02T04:08:23.363Z,10.00
2022-11-02T04:09:25.507Z,8.87
2022-11-02T04:10:28.015Z,10.07
2022-11-02T04:11:49.643Z,8.90
2022-11-02T04:13:09.882Z,9.57
2022-11-02T04:14:30.773Z,9.73
2022-11-02T04:15:32.410Z,8.83
2022-11-02T04:16:33.995Z,9.53
2022-11-02T04:17:53.850Z,9.40
2022-11-02T04:19:14.234Z,9.53
2022-11-02T04:20:15.904Z,9.07
2022-11-02T04:21:17.394Z,9.57
2022-11-02T04:22:38.457Z,9.53
2022-11-02T04:23:58.368Z,9.50
2022-11-02T04:25:18.968Z,10.00
2022-11-02T04:26:20.653Z,9.90
2022-11-02T04:27:22.210Z,9.03
2022-11-02T04:28:23.844Z,9.17
2022-11-02T04:29:25.352Z,9.63
2022-11-02T04:30:27.174Z,9.93
2022-11-02T04:31:28.690Z,8.93
2022-11-02T04:32:48.674Z,10.63
2022-11-02T04:33:50.183Z,10.57
2022-11-02T04:34:51.695Z,10.70
2022-11-02T04:35:53.263Z,10.57
2022-11-02T04:36:54.762Z,11.70
2022-11-02T04:38:15.769Z,11.43
2022-11-02T04:39:17.704Z,11.43
2022-11-02T04:40:19.261Z,11.53
2022-11-02T04:41:40.857Z,12.23
2022-11-02T04:42:46.983Z,12.67
2022-11-02T04:43:48.523Z,13.03
2022-11-02T04:44:50.012Z,11.90
2022-11-02T04:45:51.515Z,13.40
2022-11-02T04:46:53.136Z,11.70
2022-11-02T04:48:17.143Z,12.20
2022-11-02T04:49:18.767Z,12.27
2022-11-02T04:50:20.326Z,12.10
2022-11-02T04:51:25.624Z,11.10
2022-11-02T04:52:27.130Z,11.17
2022-11-02T04:53:28.675Z,9.83
2022-11-02T04:54:30.191Z,9.67
2022-11-02T04:55:31.791Z,10.07
2022-11-02T04:56:33.479Z,9.90
2022-11-02T04:57:35.330Z,9.40
2022-11-02T04:58:36.846Z,10.97
2022-11-02T04:59:38.363Z,10.87
2022-11-02T05:00:40.134Z,10.77
2022-11-02T05:01:41.790Z,10.13
2022-11-02T05:02:43.710Z,9.83
2022-11-02T05:03:49.146Z,10.73
2022-11-02T05:04:50.662Z,11.90
2022-11-02T05:05:55.649Z,10.70
2022-11-02T05:07:01.300Z,10.73
2022-11-02T05:08:03.569Z,10.97
2022-11-02T05:09:05.384Z,10.10
2022-11-02T05:10:07.299Z,9.60
2022-11-02T05:11:10.465Z,8.73
2022-11-02T05:12:11.989Z,9.10
2022-11-02T05:13:13.523Z,9.10
2022-11-02T05:14:15.145Z,8.53
2022-11-02T05:15:16.659Z,7.87
2022-11-02T05:16:18.225Z,6.77
2022-11-02T05:17:19.735Z,7.20
2022-11-02T05:19:24.173Z,7.00
2022-11-02T05:20:25.795Z,8.70
2022-11-02T05:21:27.375Z,8.63
2022-11-02T05:22:28.899Z,8.50
2022-11-02T05:23:30.466Z,8.73
2022-11-02T05:24:32.524Z,9.10
2022-11-02T05:25:34.465Z,9.30
2022-11-02T05:26:35.994Z,10.10
2022-11-02T05:27:37.912Z,9.40
2022-11-02T05:28:39.535Z,9.87
2022-11-02T05:29:41.071Z,9.07
2022-11-02T05:30:42.625Z,9.00
2022-11-02T05:31:44.253Z,7.53
2022-11-02T05:32:45.796Z,7.33
2022-11-02T05:33:47.408Z,7.30
2022-11-02T05:34:49.033Z,7.50
2022-11-02T05:35:50.736Z,7.00
2022-11-02T05:36:52.291Z,7.10
2022-11-02T05:37:55.503Z,7.97
2022-11-02T05:38:57.164Z,7.80
2022-11-02T05:39:58.731Z,7.97
2022-11-02T05:41:00.443Z,9.07
2022-11-02T05:42:01.935Z,8.23
2022-11-02T05:43:05.152Z,8.67
2022-11-02T05:44:06.949Z,8.53
2022-11-02T05:45:08.872Z,9.00
2022-11-02T05:46:10.475Z,8.53
2022-11-02T05:47:12.015Z,8.30
2022-11-02T05:48:13.534Z,7.63
2022-11-02T05:49:15.068Z,7.90
2022-11-02T05:50:16.633Z,8.43
2022-11-02T05:51:18.167Z,8.47
2022-11-02T05:52:19.713Z,7.63
2022-11-02T05:53:21.253Z,7.87
2022-11-02T05:54:22.866Z,8.40
2022-11-02T05:55:24.994Z,7.00
2022-11-02T05:56:26.631Z,8.80
2022-11-02T05:57:28.173Z,8.47
2022-11-02T05:58:30.341Z,8.43
2022-11-02T05:59:32.007Z,9.43
2022-11-02T06:00:33.560Z,8.63
2022-11-02T06:01:35.137Z,8.80
2022-11-02T06:02:36.788Z,8.20
2022-11-02T06:03:38.372Z,8.87
2022-11-02T06:04:40.052Z,8.70
2022-11-02T06:05:41.680Z,8.70
2022-11-02T06:06:43.961Z,8.93
2022-11-02T06:07:45.489Z,10.57
2022-11-02T06:08:47.022Z,10.97
2022-11-02T06:09:48.546Z,12.43
2022-11-02T06:10:50.131Z,13.40
2022-11-02T06:11:51.689Z,12.67
2022-11-02T06:12:58.080Z,12.57
2022-11-02T06:13:59.835Z,13.23
2022-11-02T06:15:01.442Z,13.50
2022-11-02T06:16:04.632Z,12.83
2022-11-02T06:17:06.141Z,12.30
2022-11-02T06:18:07.953Z,13.43
2022-11-02T06:19:09.549Z,13.10
2022-11-02T06:20:11.523Z,14.60
2022-11-02T06:21:13.085Z,15.27
2022-11-02T06:22:14.618Z,13.77
2022-11-02T06:23:18.170Z,14.50
2022-11-02T06:24:19.692Z,14.47
2022-11-02T06:25:21.250Z,13.87
2022-11-02T06:26:22.785Z,14.13
2022-11-02T06:27:24.289Z,12.87
2022-11-02T06:28:26.442Z,14.90
2022-11-02T06:29:27.979Z,13.77
2022-11-02T06:30:29.532Z,12.87
2022-11-02T06:31:31.055Z,12.60
2022-11-02T06:32:32.643Z,12.60
2022-11-02T06:33:34.142Z,13.73
2022-11-02T06:34:35.648Z,12.87
2022-11-02T06:35:37.187Z,11.83
2022-11-02T06:36:38.726Z,12.50
2022-11-02T06:37:40.238Z,12.83
2022-11-02T06:38:42.180Z,13.00
2022-11-02T06:39:43.749Z,12.60
2022-11-02T06:40:54.043Z,11.73
2022-11-02T06:41:55.550Z,12.70
2022-11-02T06:43:15.383Z,12.57
2022-11-02T06:44:18.281Z,12.87
2022-11-02T06:45:19.807Z,12.87
2022-11-02T06:46:21.487Z,13.97
2022-11-02T06:47:22.998Z,13.17
2022-11-02T06:48:29.840Z,12.47
2022-11-02T06:49:31.530Z,13.07
2022-11-02T06:50:33.040Z,13.30
2022-11-02T06:51:34.555Z,12.40
2022-11-02T06:52:42.374Z,11.87
2022-11-02T06:53:43.956Z,12.00
2022-11-02T06:54:45.454Z,12.83
2022-11-02T06:55:55.518Z,13.00
2022-11-02T06:56:57.088Z,12.17
2022-11-02T06:57:58.591Z,13.43
2022-11-02T06:59:00.169Z,12.50
2022-11-02T07:00:04.995Z,11.27
2022-11-02T07:01:08.029Z,11.80
2022-11-02T07:02:10.105Z,12.00
2022-11-02T07:03:11.704Z,12.60
2022-11-02T07:04:13.499Z,11.43
2022-11-02T07:05:15.150Z,12.73
2022-11-02T07:06:17.089Z,12.07
2022-11-02T07:07:18.651Z,11.47
2022-11-02T07:08:21.365Z,12.20
2022-11-02T07:09:22.890Z,11.50
2022-11-02T07:10:25.111Z,12.37
2022-11-02T07:11:26.716Z,11.97
2022-11-02T07:12:28.419Z,12.77
2022-11-02T07:13:30.142Z,12.87
2022-11-02T07:14:31.696Z,11.80
2022-11-02T07:15:33.277Z,11.60
2022-11-02T07:16:34.804Z,12.60
2022-11-02T07:17:39.991Z,13.37
2022-11-02T07:18:41.644Z,12.43
2022-11-02T07:19:43.269Z,12.30
2022-11-02T07:20:44.866Z,12.47
2022-11-02T07:21:47.800Z,12.17
2022-11-02T07:22:55.049Z,13.00
2022-11-02T07:23:56.579Z,12.20
2022-11-02T07:24:58.219Z,11.70
2022-11-02T07:26:03.311Z,11.60
2022-11-02T07:27:04.843Z,11.37
2022-11-02T07:28:06.405Z,11.57
2022-11-02T07:29:07.920Z,11.63
2022-11-02T07:30:09.682Z,11.70
2022-11-02T07:31:11.260Z,12.43
2022-11-02T07:32:12.783Z,11.73
2022-11-02T07:33:14.414Z,13.13
2022-11-02T07:34:17.288Z,12.60
2022-11-02T07:35:19.367Z,12.97
2022-11-02T07:36:20.906Z,12.13
2022-11-02T07:37:22.445Z,12.87
2022-11-02T07:38:24.012Z,13.43
2022-11-02T07:39:26.235Z,12.40
2022-11-02T07:40:29.404Z,12.60
2022-11-02T07:41:31.232Z,12.73
2022-11-02T07:42:32.783Z,12.80
2022-11-02T07:43:35.287Z,12.37
2022-11-02T07:44:37.494Z,15.60
2022-11-02T07:45:39.007Z,14.37
2022-11-02T07:46:40.525Z,15.57
2022-11-02T07:47:43.984Z,14.37
2022-11-02T07:48:47.313Z,14.90
2022-11-02T07:49:48.871Z,13.17
2022-11-02T07:50:50.390Z,13.27
2022-11-02T07:51:51.909Z,14.60
2022-11-02T07:52:55.874Z,14.97
2022-11-02T07:53:57.948Z,13.33
2022-11-02T07:54:59.451Z,13.90
2022-11-02T07:56:01.334Z,12.87
2022-11-02T07:57:02.982Z,13.53
2022-11-02T07:58:08.044Z,14.33
2022-11-02T07:59:10.783Z,12.37
2022-11-02T08:00:12.625Z,12.70
2022-11-02T08:01:14.476Z,13.37
2022-11-02T08:02:16.110Z,12.63
2022-11-02T08:03:17.726Z,12.27
2022-11-02T08:04:19.422Z,11.80
2022-11-02T08:05:21.051Z,12.30
2022-11-02T08:06:22.581Z,12.57
2022-11-02T08:07:24.135Z,11.70
2022-11-02T08:08:25.703Z,12.57
2022-11-02T08:09:27.307Z,12.20
2022-11-02T08:10:35.347Z,12.80
2022-11-02T08:11:40.461Z,12.23
2022-11-02T08:12:42.006Z,12.77
2022-11-02T08:13:43.536Z,11.50
2022-11-02T08:14:45.066Z,11.87
2022-11-02T08:15:51.130Z,12.07
2022-11-02T08:16:52.735Z,12.53
2022-11-02T08:18:24.490Z,10.90
2022-11-02T08:19:26.048Z,12.87
2022-11-02T08:20:27.644Z,10.73
2022-11-02T08:21:29.178Z,12.07
2022-11-02T08:22:30.696Z,11.17
2022-11-02T08:23:32.217Z,10.57
2022-11-02T08:24:33.715Z,9.90
2022-11-02T08:25:35.907Z,10.60
2022-11-02T08:26:38.756Z,10.67
2022-11-02T08:27:42.579Z,10.27
2022-11-02T08:28:44.180Z,10.90
2022-11-02T08:29:45.731Z,11.00
2022-11-02T08:30:47.340Z,10.60
2022-11-02T08:31:48.911Z,10.63
2022-11-02T08:32:55.481Z,11.00
2022-11-02T08:33:58.738Z,11.00
2022-11-02T08:35:00.268Z,10.97
2022-11-02T08:36:04.613Z,10.27
2022-11-02T08:37:07.985Z,10.60
2022-11-02T08:38:11.146Z,10.90
2022-11-02T08:39:18.489Z,10.63
2022-11-02T08:40:20.815Z,10.70
2022-11-02T08:41:22.453Z,10.00
2022-11-02T08:42:23.991Z,10.50
2022-11-02T08:43:25.781Z,10.70
2022-11-02T08:44:27.284Z,10.77
2022-11-02T08:45:35.132Z,10.47
2022-11-02T08:46:40.224Z,10.97
2022-11-02T08:47:42.535Z,10.67
2022-11-02T08:48:45.275Z,10.43
2022-11-02T08:49:47.191Z,9.90
2022-11-02T08:50:49.374Z,10.27
2022-11-02T08:51:51.028Z,10.83
2022-11-02T08:52:52.785Z,9.40
2022-11-02T08:53:54.428Z,10.60
2022-11-02T08:54:56.030Z,8.98
2022-11-02T08:55:59.078Z,9.67
2022-11-02T08:57:00.595Z,9.57
2022-11-02T08:58:02.446Z,9.63
2022-11-02T08:59:04.154Z,9.50
2022-11-02T09:00:07.124Z,10.00
2022-11-02T09:01:08.710Z,10.10
2022-11-02T09:02:10.458Z,9.53
2022-11-02T09:03:14.007Z,10.03
2022-11-02T09:04:15.564Z,9.50
2022-11-02T09:05:17.176Z,10.23
2022-11-02T09:06:18.766Z,9.63
2022-11-02T09:07:20.304Z,9.50
2022-11-02T09:08:21.868Z,8.67
2022-11-02T09:09:23.425Z,9.17
2022-11-02T09:10:25.358Z,9.33
2022-11-02T09:11:26.903Z,8.45
2022-11-02T09:12:28.498Z,9.07
2022-11-02T09:13:30.315Z,9.33
2022-11-02T09:14:31.926Z,9.00
2022-11-02T09:15:35.528Z,8.60
2022-11-02T09:16:41.268Z,9.63
2022-11-02T09:17:46.603Z,8.43
2022-11-02T09:18:48.153Z,9.63
2022-11-02T09:19:49.692Z,9.75
2022-11-02T09:20:51.462Z,9.30
2022-11-02T09:21:53.137Z,8.38
2022-11-02T09:22:54.686Z,9.07
2022-11-02T09:23:56.206Z,8.88
2022-11-02T09:24:57.709Z,9.07
2022-11-02T09:26:00.183Z,8.27
2022-11-02T09:27:01.712Z,8.45
2022-11-02T09:28:03.387Z,8.75
2022-11-02T09:29:05.101Z,8.53
2022-11-02T09:30:07.675Z,8.82
2022-11-02T09:31:11.572Z,8.83
2022-11-02T09:32:13.501Z,9.10
2022-11-02T09:33:15.381Z,8.88
2022-11-02T09:34:16.961Z,8.33
2022-11-02T09:35:18.534Z,8.50
2022-11-02T09:36:20.093Z,8.67
2022-11-02T09:37:21.623Z,8.15
2022-11-02T09:38:23.219Z,9.03
2022-11-02T09:39:24.971Z,8.82
2022-11-02T09:40:30.289Z,8.55
2022-11-02T09:41:58.866Z,8.40
2022-11-02T09:43:21.867Z,8.75
2022-11-02T09:44:38.297Z,9.00
2022-11-02T09:45:53.430Z,8.50
2022-11-02T09:47:39.632Z,8.30
2022-11-02T09:48:27.863Z,8.40
2022-11-02T09:49:30.930Z,8.25
2022-11-02T09:51:02.224Z,8.02
2022-11-02T09:52:07.446Z,8.77
2022-11-02T09:53:16.791Z,9.23
2022-11-02T09:54:21.078Z,8.50
2022-11-02T09:55:32.206Z,8.40
2022-11-02T09:56:35.419Z,8.35
2022-11-02T09:57:38.893Z,7.80
2022-11-02T09:58:41.251Z,8.20
2022-11-02T09:59:43.014Z,8.35
2022-11-02T10:00:48.880Z,8.65
2022-11-02T10:01:56.916Z,9.82
2022-11-02T10:03:25.409Z,8.93
2022-11-02T10:04:42.831Z,7.63
2022-11-02T10:06:11.239Z,8.25
2022-11-02T10:07:25.027Z,8.77
2022-11-02T10:08:32.662Z,7.75
2022-11-02T10:09:44.230Z,9.13
2022-11-02T10:10:53.395Z,8.77
2022-11-02T10:12:09.874Z,8.25
2022-11-02T10:13:38.633Z,8.90
2022-11-02T10:14:55.831Z,7.97
2022-11-02T10:16:03.559Z,7.43
2022-11-02T10:17:17.427Z,7.90
2022-11-02T10:18:24.061Z,16.95
2022-11-02T10:19:30.310Z,15.90
2022-11-02T10:20:41.813Z,10.13
2022-11-02T10:21:47.686Z,8.05
2022-11-02T10:22:49.319Z,9.57
2022-11-02T10:23:55.125Z,9.27
2022-11-02T10:24:58.335Z,8.18
2022-11-02T10:26:01.827Z,8.90
2022-11-02T10:27:14.251Z,8.80
2022-11-02T10:28:21.151Z,7.15
2022-11-02T10:29:51.452Z,6.90
2022-11-02T10:30:54.376Z,7.30
2022-11-02T10:31:56.025Z,6.93
2022-11-02T10:32:57.772Z,7.85
2022-11-02T10:34:14.142Z,7.18
2022-11-02T10:35:41.109Z,7.55
2022-11-02T10:36:58.191Z,6.90
2022-11-02T10:38:27.724Z,7.45
2022-11-02T10:39:53.492Z,7.75
2022-11-02T10:41:16.296Z,6.93
2022-11-02T10:42:44.018Z,6.63
2022-11-02T10:44:13.616Z,6.88
2022-11-02T10:45:52.014Z,6.65
2022-11-02T10:46:53.632Z,6.90
2022-11-02T10:48:13.510Z,7.32
2022-11-02T10:49:23.030Z,6.72
2022-11-02T10:50:44.731Z,7.18
2022-11-02T10:51:46.307Z,6.68
2022-11-02T10:52:48.075Z,6.45
2022-11-02T10:53:51.894Z,6.53
2022-11-02T10:54:53.557Z,6.28
2022-11-02T10:56:10.935Z,6.82
2022-11-02T10:57:14.076Z,6.40
2022-11-02T10:58:19.507Z,6.20
2022-11-02T10:59:25.784Z,6.70
2022-11-02T11:00:31.772Z,6.10
2022-11-02T11:01:33.726Z,6.03
2022-11-02T11:02:35.327Z,6.70
2022-11-02T11:04:11.150Z,6.70
2022-11-02T11:05:14.320Z,6.60
2022-11-02T11:06:15.959Z,5.80
2022-11-02T11:07:26.124Z,6.28
2022-11-02T11:08:44.267Z,6.20
2022-11-02T11:09:50.289Z,5.43
2022-11-02T11:10:52.129Z,5.82
2022-11-02T11:12:03.493Z,6.40
2022-11-02T11:13:07.767Z,6.55
2022-11-02T11:15:49.041Z,6.25
2022-11-02T11:16:55.114Z,5.72
2022-11-02T11:20:43.041Z,5.60
2022-11-02T11:21:45.020Z,5.90
2022-11-02T11:22:46.575Z,6.85
2022-11-02T11:23:48.100Z,5.40
2022-11-02T11:24:49.714Z,6.57
2022-11-02T11:26:26.577Z,5.65
2022-11-02T11:27:28.159Z,6.32
2022-11-02T11:28:52.930Z,5.70
2022-11-02T11:29:58.159Z,5.55
2022-11-02T11:31:08.301Z,5.15
2022-11-02T11:32:19.708Z,5.95
2022-11-02T11:33:22.987Z,5.32
2022-11-02T11:34:28.563Z,5.75
2022-11-02T11:35:34.633Z,6.15
2022-11-02T11:36:36.737Z,6.13
2022-11-02T11:37:58.052Z,5.63
2022-11-02T11:39:02.181Z,5.20
2022-11-02T11:40:14.908Z,5.18
2022-11-02T11:41:17.808Z,6.13
2022-11-02T11:42:25.355Z,5.75
2022-11-02T11:43:30.563Z,5.28
2022-11-02T11:44:32.902Z,5.93
2022-11-02T11:45:34.523Z,6.05
2022-11-02T11:46:42.038Z,5.30
2022-11-02T11:47:43.753Z,5.68
2022-11-02T11:48:50.587Z,6.40
2022-11-02T11:50:11.205Z,5.88
2022-11-02T11:51:30.161Z,6.45
2022-11-02T11:52:33.649Z,6.10
2022-11-02T11:53:35.610Z,6.15
2022-11-02T11:54:38.312Z,6.03
2022-11-02T11:55:48.974Z,5.85
2022-11-02T11:56:53.406Z,7.57
2022-11-02T11:58:14.668Z,7.43
2022-11-02T11:59:22.298Z,5.75
2022-11-02T12:00:29.073Z,5.25
2022-11-02T12:01:40.031Z,5.50
2022-11-02T12:02:44.754Z,5.60
2022-11-02T12:03:55.477Z,5.13
2022-11-02T12:05:13.290Z,5.95
2022-11-02T12:06:25.331Z,5.78
2022-11-02T12:07:38.583Z,5.28
2022-11-02T12:09:07.530Z,5.60
2022-11-02T12:10:21.907Z,6.20
2022-11-02T12:11:31.978Z,5.40
2022-11-02T12:13:14.892Z,5.78
2022-11-02T12:14:16.374Z,5.18
2022-11-02T12:15:39.742Z,4.70
2022-11-02T12:17:16.285Z,4.68
2022-11-02T12:18:48.965Z,5.57
2022-11-02T12:19:50.533Z,5.35
2022-11-02T12:21:33.782Z,5.45
2022-11-02T12:22:43.924Z,5.72
2022-11-02T12:23:57.692Z,5.53
2022-11-02T12:25:34.673Z,4.78
2022-11-02T12:27:29.285Z,5.00
2022-11-02T12:29:01.414Z,4.57
2022-11-02T12:30:15.191Z,4.60
2022-11-02T12:31:24.517Z,4.53
2022-11-02T12:32:47.941Z,4.78
2022-11-02T12:34:24.727Z,4.25
2022-11-02T12:35:54.418Z,4.90
2022-11-02T12:38:44.739Z,4.57
2022-11-02T12:40:22.086Z,4.45
2022-11-02T12:41:55.590Z,4.88
2022-11-02T12:43:02.651Z,5.25
2022-11-02T12:44:29.250Z,5.05
2022-11-02T12:45:42.792Z,4.70
2022-11-02T12:46:56.459Z,4.80
2022-11-02T12:47:59.620Z,5.43
2022-11-02T12:49:36.661Z,4.75
2022-11-02T12:50:50.267Z,5.13
2022-11-02T12:52:12.716Z,5.22
2022-11-02T12:53:35.443Z,4.88
2022-11-02T12:54:49.339Z,4.45
2022-11-02T12:55:56.946Z,4.47
2022-11-02T12:56:58.954Z,5.32
2022-11-02T12:58:06.881Z,5.22
2022-11-02T12:59:16.679Z,5.75
2022-11-02T13:00:21.823Z,5.00
2022-11-02T13:01:32.594Z,5.03
2022-11-02T13:02:49.470Z,4.93
2022-11-02T13:04:01.881Z,5.78
2022-11-02T13:05:15.118Z,5.50
2022-11-02T13:06:23.146Z,5.38
2022-11-02T13:07:52.787Z,4.85
2022-11-02T13:09:13.096Z,4.85
2022-11-02T13:10:26.451Z,4.65
2022-11-02T13:11:37.782Z,4.70
2022-11-02T13:12:39.592Z,4.80
2022-11-02T13:13:47.871Z,5.03
2022-11-02T13:14:56.222Z,4.75
2022-11-02T13:15:59.870Z,4.57
2022-11-02T13:17:09.719Z,5.30
2022-11-02T13:18:32.916Z,4.88
2022-11-02T13:20:02.030Z,4.88
2022-11-02T13:21:05.154Z,4.63
2022-11-02T13:22:10.845Z,4.88
2022-11-02T13:23:34.307Z,5.47
2022-11-02T13:24:52.194Z,4.30
2022-11-02T13:26:00.204Z,5.07
2022-11-02T13:27:21.800Z,6.93
2022-11-02T13:28:33.982Z,5.75
2022-11-02T13:29:41.962Z,5.10
2022-11-02T13:30:45.197Z,5.32
2022-11-02T13:32:17.837Z,4.75
2022-11-02T13:33:48.959Z,4.78
2022-11-02T13:34:54.012Z,4.45
2022-11-02T13:35:55.554Z,4.90
2022-11-02T13:36:57.175Z,4.55
2022-11-02T13:38:29.807Z,4.82
2022-11-02T13:39:45.268Z,5.53
2022-11-02T13:40:54.635Z,5.05
2022-11-02T13:42:16.507Z,5.22
2022-11-02T13:43:21.010Z,5.32
2022-11-02T13:44:28.245Z,5.40
2022-11-02T13:45:45.412Z,5.38
2022-11-02T13:46:58.559Z,5.20
2022-11-02T13:48:19.150Z,5.05
2022-11-02T13:49:26.391Z,5.00
2022-11-02T13:50:33.078Z,5.22
2022-11-02T13:51:40.439Z,4.30
2022-11-02T13:53:17.001Z,4.80
2022-11-02T13:54:30.282Z,4.90
2022-11-02T13:55:46.729Z,5.03
2022-11-02T13:56:53.848Z,5.93
2022-11-02T13:57:58.156Z,5.78
2022-11-02T13:59:18.980Z,6.05
2022-11-02T14:00:23.227Z,5.85
2022-11-02T14:01:27.825Z,4.90
2022-11-02T14:02:35.046Z,4.50
2022-11-02T14:03:56.051Z,4.40
2022-11-02T14:05:01.204Z,4.90
2022-11-02T14:06:11.547Z,4.32
2022-11-02T14:07:40.395Z,5.15
2022-11-02T14:08:59.580Z,4.80
2022-11-02T14:10:15.702Z,5.60
2022-11-02T14:11:17.187Z,4.90
2022-11-02T14:12:21.672Z,5.45
2022-11-02T14:13:52.389Z,4.53
2022-11-02T14:15:12.347Z,5.43
2022-11-02T14:16:42.675Z,4.55
2022-11-02T14:17:53.476Z,5.00
2022-11-02T14:19:19.382Z,5.00
2022-11-02T14:20:39.878Z,5.22
2022-11-02T14:21:52.664Z,5.75
2022-11-02T14:23:09.110Z,4.45
2022-11-02T14:24:32.478Z,4.70
2022-11-02T14:25:54.389Z,4.40
2022-11-02T14:26:57.378Z,4.10
2022-11-02T14:28:29.270Z,4.70
2022-11-02T14:29:44.873Z,4.85
2022-11-02T14:30:49.025Z,4.50
2022-11-02T14:31:57.431Z,4.35
2022-11-02T14:33:09.030Z,4.45
2022-11-02T14:34:13.535Z,5.07
2022-11-02T14:35:22.361Z,4.20
2022-11-02T14:36:32.927Z,4.55
2022-11-02T14:37:37.189Z,4.60
2022-11-02T14:38:54.470Z,4.07
2022-11-02T14:40:19.982Z,5.00
2022-11-02T14:41:21.623Z,4.78
2022-11-02T14:42:35.023Z,5.20
2022-11-02T14:44:07.186Z,8.52
2022-11-02T14:45:18.039Z,6.40
2022-11-02T14:46:19.706Z,5.00
2022-11-02T14:47:28.709Z,4.57
2022-11-02T14:48:31.959Z,5.35
2022-11-02T14:49:48.483Z,4.53